Startpagina
METAR-TAF:

METAR-TAF

Vliegvelden :

Luchthaven Rabat-Sale

Rabat, Marokko

breedte: 34-03N, lengte: 006-46W, hoogte: 84 m

Actueel weer

Dit bericht is 38 minuten geleden gemaakt, om 05:30 UTC
Wind 5 kt uit het zuidzuidoosten
Temperatuur 3°C
Vochtigheid 100%
Druk 1026 hPa
Zicht: 5000 m
Verspreide wolken op 1600 ft
Verspreide wolken op 20000 ft

METAR: GMME 110530Z 15005KT 5000 SCT016 SCT200 03/03 Q1026 NOSIG

Tijdstip: 07:08 (06:08 UTC)

Verwachting

Dit bericht is 1 uur en het 8 minuten geleden gemaakt, om 05:00 UTC
Verwachting geldig van 11 om 06 UTC tot 12 om 12 UTC
Wind 10 kt uit het zuidoosten
Zicht: 8000 m
Verspreide wolken op 1600 ft
Tijdelijke
van 11 om 22 UTC tot 12 om 07 UTC
Zicht: 3000 m
Gebroken wolken op 1000 ft
nevel

TAF: GMME 110500Z 1106/1212 13010KT 8000 SCT016 TEMPO 1122/1207 3000 BR BKN010

Waarnemingen en weersverwachtingen van meer dan 4000 vliegvelden (METAR en TAF).

De beschikbare stations zijn de gele en rode punten op de kaart.

Ga met uw muis naar het station om de naam te zien.

Klik dan om waarnemingen en weersverwachtingen te zien.

kaart wijzigen: klik op de groene knoppen met een zwart kruis om in te zoomen, op de groene knop met een streepje om uit te zoomen of op de groene pijlen voor aangrenzende kaarten.


METAR-TAF: